sensor_id;sensor_type;location;lat;lon;timestamp;P1;P2;P0
55549;PMS7003;41397;49.972;18.944;2024-01-27T00:02:49;0;0;0
55549;PMS7003;41397;49.972;18.944;2024-01-27T00:05:50;0;0;0
55549;PMS7003;41397;49.972;18.944;2024-01-27T00:08:54;0;0;0
55549;PMS7003;41397;49.972;18.944;2024-01-27T00:11:55;0;0;0
55549;PMS7003;41397;49.972;18.944;2024-01-27T00:14:57;0;0;0
55549;PMS7003;41397;49.972;18.944;2024-01-27T00:17:58;0;0;0
55549;PMS7003;41397;49.972;18.944;2024-01-27T00:21:02;0;0;0
55549;PMS7003;41397;49.972;18.944;2024-01-27T00:24:04;0;0;0
55549;PMS7003;41397;49.972;18.944;2024-01-27T00:27:06;0;0;0
55549;PMS7003;41397;49.972;18.944;2024-01-27T00:30:07;0;0;0
55549;PMS7003;41397;49.972;18.944;2024-01-27T00:33:11;0;0;0
55549;PMS7003;41397;49.972;18.944;2024-01-27T00:36:13;0;0;0
55549;PMS7003;41397;49.972;18.944;2024-01-27T00:39:14;0;0;0
55549;PMS7003;41397;49.972;18.944;2024-01-27T00:42:16;0;0;0
55549;PMS7003;41397;49.972;18.944;2024-01-27T00:45:24;0;0;0
55549;PMS7003;41397;49.972;18.944;2024-01-27T00:48:29;0;0;0
55549;PMS7003;41397;49.972;18.944;2024-01-27T00:51:30;0;0;0
55549;PMS7003;41397;49.972;18.944;2024-01-27T00:54:31;0;0;0
55549;PMS7003;41397;49.972;18.944;2024-01-27T00:57:32;0;0;0
55549;PMS7003;41397;49.972;18.944;2024-01-27T01:00:34;0;0;0
55549;PMS7003;41397;49.972;18.944;2024-01-27T01:03:35;0;0;0
55549;PMS7003;41397;49.972;18.944;2024-01-27T01:06:38;0;0;0
55549;PMS7003;41397;49.972;18.944;2024-01-27T01:09:40;2;2;1
55549;PMS7003;41397;49.972;18.944;2024-01-27T01:12:41;1;1;0
55549;PMS7003;41397;49.972;18.944;2024-01-27T01:15:43;0;0;0
55549;PMS7003;41397;49.972;18.944;2024-01-27T01:18:44;0;0;0
55549;PMS7003;41397;49.972;18.944;2024-01-27T01:21:45;0;0;0
55549;PMS7003;41397;49.972;18.944;2024-01-27T01:24:46;0;0;0
55549;PMS7003;41397;49.972;18.944;2024-01-27T01:27:48;0;0;0
55549;PMS7003;41397;49.972;18.944;2024-01-27T01:30:50;0;0;0
55549;PMS7003;41397;49.972;18.944;2024-01-27T01:33:51;0;0;0
55549;PMS7003;41397;49.972;18.944;2024-01-27T01:36:53;0;0;0
55549;PMS7003;41397;49.972;18.944;2024-01-27T01:39:54;0;0;0
55549;PMS7003;41397;49.972;18.944;2024-01-27T01:42:56;0;0;0
55549;PMS7003;41397;49.972;18.944;2024-01-27T01:45:59;0;0;0
55549;PMS7003;41397;49.972;18.944;2024-01-27T01:49:01;1;1;0
55549;PMS7003;41397;49.972;18.944;2024-01-27T01:52:03;0;0;0
55549;PMS7003;41397;49.972;18.944;2024-01-27T01:55:05;0;0;0
55549;PMS7003;41397;49.972;18.944;2024-01-27T01:58:07;1;1;1
55549;PMS7003;41397;49.972;18.944;2024-01-27T02:01:08;0;0;0
55549;PMS7003;41397;49.972;18.944;2024-01-27T02:04:10;0;0;0
55549;PMS7003;41397;49.972;18.944;2024-01-27T02:07:11;0;0;0
55549;PMS7003;41397;49.972;18.944;2024-01-27T02:10:14;0;0;0
55549;PMS7003;41397;49.972;18.944;2024-01-27T02:13:17;0;0;0
55549;PMS7003;41397;49.972;18.944;2024-01-27T02:16:19;0;0;0
55549;PMS7003;41397;49.972;18.944;2024-01-27T02:19:22;0;0;0
55549;PMS7003;41397;49.972;18.944;2024-01-27T02:22:24;0;0;0
55549;PMS7003;41397;49.972;18.944;2024-01-27T02:25:25;0;0;0
55549;PMS7003;41397;49.972;18.944;2024-01-27T02:28:26;0;0;0
55549;PMS7003;41397;49.972;18.944;2024-01-27T02:31:27;1;1;0
55549;PMS7003;41397;49.972;18.944;2024-01-27T02:34:30;0;0;0
55549;PMS7003;41397;49.972;18.944;2024-01-27T02:37:31;0;0;0
55549;PMS7003;41397;49.972;18.944;2024-01-27T02:40:33;0;0;0
55549;PMS7003;41397;49.972;18.944;2024-01-27T02:43:34;0;0;0
55549;PMS7003;41397;49.972;18.944;2024-01-27T02:46:38;1;1;0
55549;PMS7003;41397;49.972;18.944;2024-01-27T02:49:39;2;2;1
55549;PMS7003;41397;49.972;18.944;2024-01-27T02:52:41;0;0;0
55549;PMS7003;41397;49.972;18.944;2024-01-27T02:55:43;0;0;0
55549;PMS7003;41397;49.972;18.944;2024-01-27T02:58:46;0;0;0
55549;PMS7003;41397;49.972;18.944;2024-01-27T03:01:48;0;0;0
55549;PMS7003;41397;49.972;18.944;2024-01-27T03:04:49;0;0;0
55549;PMS7003;41397;49.972;18.944;2024-01-27T03:07:50;0;0;0
55549;PMS7003;41397;49.972;18.944;2024-01-27T03:10:54;0;0;0
55549;PMS7003;41397;49.972;18.944;2024-01-27T03:13:55;0;0;0
55549;PMS7003;41397;49.972;18.944;2024-01-27T03:16:57;0;0;0
55549;PMS7003;41397;49.972;18.944;2024-01-27T03:19:59;0;0;0
55549;PMS7003;41397;49.972;18.944;2024-01-27T03:23:02;0;0;0
55549;PMS7003;41397;49.972;18.944;2024-01-27T03:26:04;0;0;0
55549;PMS7003;41397;49.972;18.944;2024-01-27T03:29:05;0;0;0
55549;PMS7003;41397;49.972;18.944;2024-01-27T03:32:07;0;0;0
55549;PMS7003;41397;49.972;18.944;2024-01-27T03:35:10;0;0;0
55549;PMS7003;41397;49.972;18.944;2024-01-27T03:38:11;0;0;0
55549;PMS7003;41397;49.972;18.944;2024-01-27T03:41:12;0;0;0
55549;PMS7003;41397;49.972;18.944;2024-01-27T03:44:14;0;0;0
55549;PMS7003;41397;49.972;18.944;2024-01-27T03:47:18;0;0;0
55549;PMS7003;41397;49.972;18.944;2024-01-27T03:50:19;0;0;0
55549;PMS7003;41397;49.972;18.944;2024-01-27T03:53:21;0;0;0
55549;PMS7003;41397;49.972;18.944;2024-01-27T03:56:22;0;0;0
55549;PMS7003;41397;49.972;18.944;2024-01-27T03:59:26;0;0;0
55549;PMS7003;41397;49.972;18.944;2024-01-27T04:02:27;0;0;0
55549;PMS7003;41397;49.972;18.944;2024-01-27T04:05:29;0;0;0
55549;PMS7003;41397;49.972;18.944;2024-01-27T04:08:31;1;1;0
55549;PMS7003;41397;49.972;18.944;2024-01-27T04:11:34;3;3;1
55549;PMS7003;41397;49.972;18.944;2024-01-27T04:14:37;0;0;0
55549;PMS7003;41397;49.972;18.944;2024-01-27T04:17:39;1;1;0
55549;PMS7003;41397;49.972;18.944;2024-01-27T04:20:43;0;0;0
55549;PMS7003;41397;49.972;18.944;2024-01-27T04:23:46;0;0;0
55549;PMS7003;41397;49.972;18.944;2024-01-27T04:26:47;0;0;0
55549;PMS7003;41397;49.972;18.944;2024-01-27T04:29:49;0;0;0
55549;PMS7003;41397;49.972;18.944;2024-01-27T04:32:50;0;0;0
55549;PMS7003;41397;49.972;18.944;2024-01-27T04:35:52;0;0;0
55549;PMS7003;41397;49.972;18.944;2024-01-27T04:38:54;0;0;0
55549;PMS7003;41397;49.972;18.944;2024-01-27T04:41:55;3;1;0
55549;PMS7003;41397;49.972;18.944;2024-01-27T04:44:56;0;0;0
55549;PMS7003;41397;49.972;18.944;2024-01-27T04:47:58;2;2;2
55549;PMS7003;41397;49.972;18.944;2024-01-27T04:51:02;0;0;0
55549;PMS7003;41397;49.972;18.944;2024-01-27T04:54:03;4;4;4
55549;PMS7003;41397;49.972;18.944;2024-01-27T04:57:04;0;0;0
55549;PMS7003;41397;49.972;18.944;2024-01-27T05:00:06;0;0;0
55549;PMS7003;41397;49.972;18.944;2024-01-27T05:03:12;1;1;1
55549;PMS7003;41397;49.972;18.944;2024-01-27T05:06:14;0;0;0
55549;PMS7003;41397;49.972;18.944;2024-01-27T05:09:16;0;0;0
55549;PMS7003;41397;49.972;18.944;2024-01-27T05:12:17;0;0;0
55549;PMS7003;41397;49.972;18.944;2024-01-27T05:15:19;0;0;0
55549;PMS7003;41397;49.972;18.944;2024-01-27T05:18:21;0;0;0
55549;PMS7003;41397;49.972;18.944;2024-01-27T05:21:22;0;0;0
55549;PMS7003;41397;49.972;18.944;2024-01-27T05:24:23;0;0;0
55549;PMS7003;41397;49.972;18.944;2024-01-27T05:27:24;1;1;0
55549;PMS7003;41397;49.972;18.944;2024-01-27T05:30:26;1;1;0
55549;PMS7003;41397;49.972;18.944;2024-01-27T05:33:27;0;0;0
55549;PMS7003;41397;49.972;18.944;2024-01-27T05:36:30;0;0;0
55549;PMS7003;41397;49.972;18.944;2024-01-27T05:39:31;1;1;1
55549;PMS7003;41397;49.972;18.944;2024-01-27T05:42:34;3;3;2
55549;PMS7003;41397;49.972;18.944;2024-01-27T05:45:35;1;1;0
55549;PMS7003;41397;49.972;18.944;2024-01-27T05:48:38;0;0;0
55549;PMS7003;41397;49.972;18.944;2024-01-27T05:51:39;0;0;0
55549;PMS7003;41397;49.972;18.944;2024-01-27T05:54:41;0;0;0
55549;PMS7003;41397;49.972;18.944;2024-01-27T05:57:42;0;0;0
55549;PMS7003;41397;49.972;18.944;2024-01-27T06:00:46;0;0;0
55549;PMS7003;41397;49.972;18.944;2024-01-27T06:03:48;0;0;0
55549;PMS7003;41397;49.972;18.944;2024-01-27T06:06:49;0;0;0
55549;PMS7003;41397;49.972;18.944;2024-01-27T06:09:51;1;1;0
55549;PMS7003;41397;49.972;18.944;2024-01-27T06:12:54;0;0;0
55549;PMS7003;41397;49.972;18.944;2024-01-27T06:15:55;0;0;0
55549;PMS7003;41397;49.972;18.944;2024-01-27T06:18:56;1;1;0
55549;PMS7003;41397;49.972;18.944;2024-01-27T06:21:58;0;0;0
55549;PMS7003;41397;49.972;18.944;2024-01-27T06:25:02;0;0;0
55549;PMS7003;41397;49.972;18.944;2024-01-27T06:28:05;0;0;0
55549;PMS7003;41397;49.972;18.944;2024-01-27T06:31:06;0;0;0
55549;PMS7003;41397;49.972;18.944;2024-01-27T06:34:08;0;0;0
55549;PMS7003;41397;49.972;18.944;2024-01-27T06:37:10;2;2;0
55549;PMS7003;41397;49.972;18.944;2024-01-27T06:40:12;0;0;0
55549;PMS7003;41397;49.972;18.944;2024-01-27T06:43:13;0;0;0
55549;PMS7003;41397;49.972;18.944;2024-01-27T06:46:15;1;1;1
55549;PMS7003;41397;49.972;18.944;2024-01-27T06:49:18;2;2;1
55549;PMS7003;41397;49.972;18.944;2024-01-27T06:52:20;2;2;1
55549;PMS7003;41397;49.972;18.944;2024-01-27T06:55:21;0;0;0
55549;PMS7003;41397;49.972;18.944;2024-01-27T06:58:22;3;3;2
55549;PMS7003;41397;49.972;18.944;2024-01-27T07:01:26;0;0;0
55549;PMS7003;41397;49.972;18.944;2024-01-27T07:04:27;1;1;0
55549;PMS7003;41397;49.972;18.944;2024-01-27T07:07:29;0;0;0
55549;PMS7003;41397;49.972;18.944;2024-01-27T07:10:31;0;0;0
55549;PMS7003;41397;49.972;18.944;2024-01-27T07:13:34;0;0;0
55549;PMS7003;41397;49.972;18.944;2024-01-27T07:16:36;0;0;0
55549;PMS7003;41397;49.972;18.944;2024-01-27T07:19:37;1;1;0
55549;PMS7003;41397;49.972;18.944;2024-01-27T07:22:38;0;0;0
55549;PMS7003;41397;49.972;18.944;2024-01-27T07:25:42;2;2;0
55549;PMS7003;41397;49.972;18.944;2024-01-27T07:28:44;0;0;0
55549;PMS7003;41397;49.972;18.944;2024-01-27T07:31:45;0;0;0
55549;PMS7003;41397;49.972;18.944;2024-01-27T07:34:46;1;1;0
55549;PMS7003;41397;49.972;18.944;2024-01-27T07:37:50;0;0;0
55549;PMS7003;41397;49.972;18.944;2024-01-27T07:40:52;0;0;0
55549;PMS7003;41397;49.972;18.944;2024-01-27T07:43:54;3;1;0
55549;PMS7003;41397;49.972;18.944;2024-01-27T07:46:55;0;0;0
55549;PMS7003;41397;49.972;18.944;2024-01-27T07:49:59;2;2;0
55549;PMS7003;41397;49.972;18.944;2024-01-27T07:53:00;0;0;0
55549;PMS7003;41397;49.972;18.944;2024-01-27T07:56:02;0;0;0
55549;PMS7003;41397;49.972;18.944;2024-01-27T07:59:06;2;2;1
55549;PMS7003;41397;49.972;18.944;2024-01-27T08:02:14;0;0;0
55549;PMS7003;41397;49.972;18.944;2024-01-27T08:05:16;0;0;0
55549;PMS7003;41397;49.972;18.944;2024-01-27T08:08:17;2;2;0
55549;PMS7003;41397;49.972;18.944;2024-01-27T08:11:18;0;0;0
55549;PMS7003;41397;49.972;18.944;2024-01-27T08:14:20;1;1;1
55549;PMS7003;41397;49.972;18.944;2024-01-27T08:17:22;0;0;0
55549;PMS7003;41397;49.972;18.944;2024-01-27T08:20:23;0;0;0
55549;PMS7003;41397;49.972;18.944;2024-01-27T08:23:25;0;0;0
55549;PMS7003;41397;49.972;18.944;2024-01-27T08:26:26;1;1;0
55549;PMS7003;41397;49.972;18.944;2024-01-27T08:29:28;0;0;0
55549;PMS7003;41397;49.972;18.944;2024-01-27T08:32:29;0;0;0
55549;PMS7003;41397;49.972;18.944;2024-01-27T08:35:30;3;3;1
55549;PMS7003;41397;49.972;18.944;2024-01-27T08:38:31;0;0;0
55549;PMS7003;41397;49.972;18.944;2024-01-27T08:41:33;0;0;0
55549;PMS7003;41397;49.972;18.944;2024-01-27T08:44:34;2;2;1
55549;PMS7003;41397;49.972;18.944;2024-01-27T08:47:36;3;3;2
55549;PMS7003;41397;49.972;18.944;2024-01-27T08:50:38;1;1;0
55549;PMS7003;41397;49.972;18.944;2024-01-27T08:53:40;2;2;1
55549;PMS7003;41397;49.972;18.944;2024-01-27T08:56:41;0;0;0
55549;PMS7003;41397;49.972;18.944;2024-01-27T08:59:43;1;1;0
55549;PMS7003;41397;49.972;18.944;2024-01-27T09:02:46;1;1;0
55549;PMS7003;41397;49.972;18.944;2024-01-27T09:05:48;4;4;3
55549;PMS7003;41397;49.972;18.944;2024-01-27T09:08:50;2;2;1
55549;PMS7003;41397;49.972;18.944;2024-01-27T09:11:52;0;0;0
55549;PMS7003;41397;49.972;18.944;2024-01-27T09:14:54;0;0;0
55549;PMS7003;41397;49.972;18.944;2024-01-27T09:17:56;0;0;0
55549;PMS7003;41397;49.972;18.944;2024-01-27T09:20:57;0;0;0
55549;PMS7003;41397;49.972;18.944;2024-01-27T09:23:59;0;0;0
55549;PMS7003;41397;49.972;18.944;2024-01-27T09:27:03;1;1;1
55549;PMS7003;41397;49.972;18.944;2024-01-27T09:30:05;1;1;0
55549;PMS7003;41397;49.972;18.944;2024-01-27T09:33:07;0;0;0
55549;PMS7003;41397;49.972;18.944;2024-01-27T09:36:09;1;1;1
55549;PMS7003;41397;49.972;18.944;2024-01-27T09:39:10;3;3;2
55549;PMS7003;41397;49.972;18.944;2024-01-27T09:42:12;0;0;0
55549;PMS7003;41397;49.972;18.944;2024-01-27T09:45:18;3;3;3
55549;PMS7003;41397;49.972;18.944;2024-01-27T09:48:21;1;1;0
55549;PMS7003;41397;49.972;18.944;2024-01-27T09:51:22;1;1;1
55549;PMS7003;41397;49.972;18.944;2024-01-27T09:54:25;2;2;0
55549;PMS7003;41397;49.972;18.944;2024-01-27T09:57:27;2;2;1
55549;PMS7003;41397;49.972;18.944;2024-01-27T10:00:29;3;3;2
55549;PMS7003;41397;49.972;18.944;2024-01-27T10:03:31;6;2;1
55549;PMS7003;41397;49.972;18.944;2024-01-27T10:06:33;0;0;0
55549;PMS7003;41397;49.972;18.944;2024-01-27T10:09:34;3;2;2
55549;PMS7003;41397;49.972;18.944;2024-01-27T10:12:40;4;4;2
55549;PMS7003;41397;49.972;18.944;2024-01-27T10:15:44;1;1;0
55549;PMS7003;41397;49.972;18.944;2024-01-27T10:18:46;2;2;1
55549;PMS7003;41397;49.972;18.944;2024-01-27T10:21:47;3;3;2
55549;PMS7003;41397;49.972;18.944;2024-01-27T10:24:49;0;0;0
55549;PMS7003;41397;49.972;18.944;2024-01-27T10:27:55;1;1;1
55549;PMS7003;41397;49.972;18.944;2024-01-27T10:34:10;1;1;1
55549;PMS7003;41397;49.972;18.944;2024-01-27T10:37:23;1;1;0
55549;PMS7003;41397;49.972;18.944;2024-01-27T10:40:25;2;2;2
55549;PMS7003;41397;49.972;18.944;2024-01-27T10:43:30;0;0;0
55549;PMS7003;41397;49.972;18.944;2024-01-27T10:46:34;0;0;0
55549;PMS7003;41397;49.972;18.944;2024-01-27T10:49:35;0;0;0
55549;PMS7003;41397;49.972;18.944;2024-01-27T10:52:41;3;3;0
55549;PMS7003;41397;49.972;18.944;2024-01-27T10:55:46;4;4;1
55549;PMS7003;41397;49.972;18.944;2024-01-27T10:58:48;3;3;2
55549;PMS7003;41397;49.972;18.944;2024-01-27T11:01:52;2;2;1
55549;PMS7003;41397;49.972;18.944;2024-01-27T11:04:55;2;2;0
55549;PMS7003;41397;49.972;18.944;2024-01-27T11:07:59;2;2;1
55549;PMS7003;41397;49.972;18.944;2024-01-27T11:11:01;2;2;2
55549;PMS7003;41397;49.972;18.944;2024-01-27T11:14:10;3;3;3
55549;PMS7003;41397;49.972;18.944;2024-01-27T11:17:11;1;1;1
55549;PMS7003;41397;49.972;18.944;2024-01-27T11:20:13;0;0;0
55549;PMS7003;41397;49.972;18.944;2024-01-27T11:23:17;0;0;0
55549;PMS7003;41397;49.972;18.944;2024-01-27T11:26:22;3;3;2
55549;PMS7003;41397;49.972;18.944;2024-01-27T11:29:26;1;1;1
55549;PMS7003;41397;49.972;18.944;2024-01-27T11:32:30;0;0;0
55549;PMS7003;41397;49.972;18.944;2024-01-27T11:35:32;3;3;2
55549;PMS7003;41397;49.972;18.944;2024-01-27T11:38:33;4;4;2
55549;PMS7003;41397;49.972;18.944;2024-01-27T11:41:35;1;1;0
55549;PMS7003;41397;49.972;18.944;2024-01-27T11:44:36;7;7;5
55549;PMS7003;41397;49.972;18.944;2024-01-27T11:47:38;1;1;1
55549;PMS7003;41397;49.972;18.944;2024-01-27T11:50:39;2;2;1
55549;PMS7003;41397;49.972;18.944;2024-01-27T11:53:41;1;1;1
55549;PMS7003;41397;49.972;18.944;2024-01-27T11:56:42;3;3;1
55549;PMS7003;41397;49.972;18.944;2024-01-27T11:59:43;2;2;1
55549;PMS7003;41397;49.972;18.944;2024-01-27T12:02:45;3;3;2
55549;PMS7003;41397;49.972;18.944;2024-01-27T12:05:52;2;2;1
55549;PMS7003;41397;49.972;18.944;2024-01-27T12:08:54;2;2;1
55549;PMS7003;41397;49.972;18.944;2024-01-27T12:11:58;3;1;0
55549;PMS7003;41397;49.972;18.944;2024-01-27T12:14:59;0;0;0
55549;PMS7003;41397;49.972;18.944;2024-01-27T12:18:08;1;1;0
55549;PMS7003;41397;49.972;18.944;2024-01-27T12:21:10;0;0;0
55549;PMS7003;41397;49.972;18.944;2024-01-27T12:24:16;0;0;0
55549;PMS7003;41397;49.972;18.944;2024-01-27T12:27:19;3;3;1
55549;PMS7003;41397;49.972;18.944;2024-01-27T12:30:21;1;1;1
55549;PMS7003;41397;49.972;18.944;2024-01-27T12:33:22;2;2;2
55549;PMS7003;41397;49.972;18.944;2024-01-27T12:36:26;2;2;2
55549;PMS7003;41397;49.972;18.944;2024-01-27T12:39:27;0;0;0
55549;PMS7003;41397;49.972;18.944;2024-01-27T12:42:29;0;0;0
55549;PMS7003;41397;49.972;18.944;2024-01-27T12:45:30;2;2;0
55549;PMS7003;41397;49.972;18.944;2024-01-27T12:48:32;0;0;0
55549;PMS7003;41397;49.972;18.944;2024-01-27T12:51:33;2;2;1
55549;PMS7003;41397;49.972;18.944;2024-01-27T12:54:35;2;2;0
55549;PMS7003;41397;49.972;18.944;2024-01-27T12:57:36;2;2;0
55549;PMS7003;41397;49.972;18.944;2024-01-27T13:00:37;0;0;0
55549;PMS7003;41397;49.972;18.944;2024-01-27T13:03:38;1;1;0
55549;PMS7003;41397;49.972;18.944;2024-01-27T13:06:40;0;0;0
55549;PMS7003;41397;49.972;18.944;2024-01-27T13:09:42;2;2;1
55549;PMS7003;41397;49.972;18.944;2024-01-27T13:12:43;2;2;1
55549;PMS7003;41397;49.972;18.944;2024-01-27T13:15:45;1;1;1
55549;PMS7003;41397;49.972;18.944;2024-01-27T13:18:48;1;1;0
55549;PMS7003;41397;49.972;18.944;2024-01-27T13:21:50;4;4;3
55549;PMS7003;41397;49.972;18.944;2024-01-27T13:24:51;3;3;1
55549;PMS7003;41397;49.972;18.944;2024-01-27T13:27:52;1;1;0
55549;PMS7003;41397;49.972;18.944;2024-01-27T13:30:56;2;2;2
55549;PMS7003;41397;49.972;18.944;2024-01-27T13:33:58;0;0;0
55549;PMS7003;41397;49.972;18.944;2024-01-27T13:36:59;3;3;2
55549;PMS7003;41397;49.972;18.944;2024-01-27T13:40:05;0;0;0
55549;PMS7003;41397;49.972;18.944;2024-01-27T13:43:10;1;1;0
55549;PMS7003;41397;49.972;18.944;2024-01-27T13:46:11;2;2;1
55549;PMS7003;41397;49.972;18.944;2024-01-27T13:49:13;0;0;0
55549;PMS7003;41397;49.972;18.944;2024-01-27T13:52:14;1;1;1
55549;PMS7003;41397;49.972;18.944;2024-01-27T13:55:16;2;2;1
55549;PMS7003;41397;49.972;18.944;2024-01-27T13:58:17;1;1;0
55549;PMS7003;41397;49.972;18.944;2024-01-27T14:01:19;1;1;1
55549;PMS7003;41397;49.972;18.944;2024-01-27T14:04:20;2;2;1
55549;PMS7003;41397;49.972;18.944;2024-01-27T14:07:21;4;4;2
55549;PMS7003;41397;49.972;18.944;2024-01-27T14:10:23;0;0;0
55549;PMS7003;41397;49.972;18.944;2024-01-27T14:13:25;5;5;3
55549;PMS7003;41397;49.972;18.944;2024-01-27T14:16:26;5;5;1
55549;PMS7003;41397;49.972;18.944;2024-01-27T14:19:29;3;3;2
55549;PMS7003;41397;49.972;18.944;2024-01-27T14:22:31;2;2;1
55549;PMS7003;41397;49.972;18.944;2024-01-27T14:25:32;2;2;1
55549;PMS7003;41397;49.972;18.944;2024-01-27T14:28:33;2;2;1
55549;PMS7003;41397;49.972;18.944;2024-01-27T14:31:36;2;2;1
55549;PMS7003;41397;49.972;18.944;2024-01-27T14:34:37;2;2;1
55549;PMS7003;41397;49.972;18.944;2024-01-27T14:37:39;2;2;2
55549;PMS7003;41397;49.972;18.944;2024-01-27T14:40:40;4;4;3
55549;PMS7003;41397;49.972;18.944;2024-01-27T14:43:44;3;3;2
55549;PMS7003;41397;49.972;18.944;2024-01-27T14:46:45;5;5;4
55549;PMS7003;41397;49.972;18.944;2024-01-27T14:49:47;4;4;2
55549;PMS7003;41397;49.972;18.944;2024-01-27T14:52:48;1;1;0
55549;PMS7003;41397;49.972;18.944;2024-01-27T14:55:52;4;4;3
55549;PMS7003;41397;49.972;18.944;2024-01-27T14:58:54;2;1;1
55549;PMS7003;41397;49.972;18.944;2024-01-27T15:01:55;7;7;5
55549;PMS7003;41397;49.972;18.944;2024-01-27T15:04:59;3;3;2
55549;PMS7003;41397;49.972;18.944;2024-01-27T15:08:01;3;3;2
55549;PMS7003;41397;49.972;18.944;2024-01-27T15:11:05;6;6;4
55549;PMS7003;41397;49.972;18.944;2024-01-27T15:14:07;6;6;4
55549;PMS7003;41397;49.972;18.944;2024-01-27T15:17:08;7;7;5
55549;PMS7003;41397;49.972;18.944;2024-01-27T15:20:10;9;8;5
55549;PMS7003;41397;49.972;18.944;2024-01-27T15:23:12;14;13;6
55549;PMS7003;41397;49.972;18.944;2024-01-27T15:26:14;13;13;8
55549;PMS7003;41397;49.972;18.944;2024-01-27T15:29:16;17;15;9
55549;PMS7003;41397;49.972;18.944;2024-01-27T15:32:17;21;16;10
55549;PMS7003;41397;49.972;18.944;2024-01-27T15:35:24;15;15;11
55549;PMS7003;41397;49.972;18.944;2024-01-27T15:38:25;10;10;9
55549;PMS7003;41397;49.972;18.944;2024-01-27T15:41:26;15;15;11
55549;PMS7003;41397;49.972;18.944;2024-01-27T15:44:27;12;12;10
55549;PMS7003;41397;49.972;18.944;2024-01-27T15:47:29;11;10;8
55549;PMS7003;41397;49.972;18.944;2024-01-27T15:50:30;13;13;10
55549;PMS7003;41397;49.972;18.944;2024-01-27T15:53:34;18;18;11
55549;PMS7003;41397;49.972;18.944;2024-01-27T15:56:35;11;11;10
55549;PMS7003;41397;49.972;18.944;2024-01-27T15:59:36;5;5;3
55549;PMS7003;41397;49.972;18.944;2024-01-27T16:02:37;7;7;6
55549;PMS7003;41397;49.972;18.944;2024-01-27T16:05:39;5;5;4
55549;PMS7003;41397;49.972;18.944;2024-01-27T16:08:41;12;9;6
55549;PMS7003;41397;49.972;18.944;2024-01-27T16:11:45;6;6;5
55549;PMS7003;41397;49.972;18.944;2024-01-27T16:14:46;7;7;5
55549;PMS7003;41397;49.972;18.944;2024-01-27T16:17:47;4;4;4
55549;PMS7003;41397;49.972;18.944;2024-01-27T16:20:49;4;4;3
55549;PMS7003;41397;49.972;18.944;2024-01-27T16:23:50;0;0;0
55549;PMS7003;41397;49.972;18.944;2024-01-27T16:27:27;4;4;3
55549;PMS7003;41397;49.972;18.944;2024-01-27T16:30:28;7;7;4
55549;PMS7003;41397;49.972;18.944;2024-01-27T16:33:30;4;4;2
55549;PMS7003;41397;49.972;18.944;2024-01-27T16:36:35;5;5;2
55549;PMS7003;41397;49.972;18.944;2024-01-27T16:39:37;5;5;5
55549;PMS7003;41397;49.972;18.944;2024-01-27T16:42:38;4;4;2
55549;PMS7003;41397;49.972;18.944;2024-01-27T16:45:40;27;26;13
55549;PMS7003;41397;49.972;18.944;2024-01-27T16:48:43;9;9;7
55549;PMS7003;41397;49.972;18.944;2024-01-27T16:51:45;10;10;8
55549;PMS7003;41397;49.972;18.944;2024-01-27T16:54:46;13;13;11
55549;PMS7003;41397;49.972;18.944;2024-01-27T16:57:48;20;20;14
55549;PMS7003;41397;49.972;18.944;2024-01-27T17:00:51;15;15;11
55549;PMS7003;41397;49.972;18.944;2024-01-27T17:03:53;20;20;14
55549;PMS7003;41397;49.972;18.944;2024-01-27T17:06:55;9;9;6
55549;PMS7003;41397;49.972;18.944;2024-01-27T17:09:56;11;11;7
55549;PMS7003;41397;49.972;18.944;2024-01-27T17:12:59;5;5;4
55549;PMS7003;41397;49.972;18.944;2024-01-27T17:16:00;6;6;4
55549;PMS7003;41397;49.972;18.944;2024-01-27T17:19:04;12;11;8
55549;PMS7003;41397;49.972;18.944;2024-01-27T17:22:05;8;8;6
55549;PMS7003;41397;49.972;18.944;2024-01-27T17:25:07;8;8;4
55549;PMS7003;41397;49.972;18.944;2024-01-27T17:28:09;6;6;5
55549;PMS7003;41397;49.972;18.944;2024-01-27T17:31:10;9;9;7
55549;PMS7003;41397;49.972;18.944;2024-01-27T17:34:15;8;8;6
55549;PMS7003;41397;49.972;18.944;2024-01-27T17:37:20;11;11;8
55549;PMS7003;41397;49.972;18.944;2024-01-27T17:40:22;7;7;5
55549;PMS7003;41397;49.972;18.944;2024-01-27T17:43:23;11;7;5
55549;PMS7003;41397;49.972;18.944;2024-01-27T17:46:24;6;6;6
55549;PMS7003;41397;49.972;18.944;2024-01-27T17:49:25;7;7;6
55549;PMS7003;41397;49.972;18.944;2024-01-27T17:52:27;7;7;6
55549;PMS7003;41397;49.972;18.944;2024-01-27T17:55:29;7;7;4
55549;PMS7003;41397;49.972;18.944;2024-01-27T17:58:30;6;6;4
55549;PMS7003;41397;49.972;18.944;2024-01-27T18:01:31;5;5;1
55549;PMS7003;41397;49.972;18.944;2024-01-27T18:04:33;6;5;4
55549;PMS7003;41397;49.972;18.944;2024-01-27T18:07:35;6;6;5
55549;PMS7003;41397;49.972;18.944;2024-01-27T18:10:36;7;7;6
55549;PMS7003;41397;49.972;18.944;2024-01-27T18:13:42;9;8;6
55549;PMS7003;41397;49.972;18.944;2024-01-27T18:16:48;6;6;5
55549;PMS7003;41397;49.972;18.944;2024-01-27T18:19:49;5;5;3
55549;PMS7003;41397;49.972;18.944;2024-01-27T18:22:51;8;8;4
55549;PMS7003;41397;49.972;18.944;2024-01-27T18:25:52;8;5;4
55549;PMS7003;41397;49.972;18.944;2024-01-27T18:28:53;9;9;5
55549;PMS7003;41397;49.972;18.944;2024-01-27T18:31:55;14;11;6
55549;PMS7003;41397;49.972;18.944;2024-01-27T18:34:59;3;3;3
55549;PMS7003;41397;49.972;18.944;2024-01-27T18:38:00;6;5;3
55549;PMS7003;41397;49.972;18.944;2024-01-27T18:41:01;4;4;2
55549;PMS7003;41397;49.972;18.944;2024-01-27T18:44:03;5;5;3
55549;PMS7003;41397;49.972;18.944;2024-01-27T18:47:04;4;4;2
55549;PMS7003;41397;49.972;18.944;2024-01-27T18:50:06;6;6;3
55549;PMS7003;41397;49.972;18.944;2024-01-27T18:53:11;5;5;4
55549;PMS7003;41397;49.972;18.944;2024-01-27T18:56:13;8;7;6
55549;PMS7003;41397;49.972;18.944;2024-01-27T18:59:14;10;6;4
55549;PMS7003;41397;49.972;18.944;2024-01-27T19:02:17;6;6;3
55549;PMS7003;41397;49.972;18.944;2024-01-27T19:05:19;6;6;4
55549;PMS7003;41397;49.972;18.944;2024-01-27T19:08:20;2;2;2
55549;PMS7003;41397;49.972;18.944;2024-01-27T19:11:21;7;7;5
55549;PMS7003;41397;49.972;18.944;2024-01-27T19:14:22;8;8;6
55549;PMS7003;41397;49.972;18.944;2024-01-27T19:17:24;4;4;3
55549;PMS7003;41397;49.972;18.944;2024-01-27T19:20:25;1;1;0
55549;PMS7003;41397;49.972;18.944;2024-01-27T19:23:26;6;6;5
55549;PMS7003;41397;49.972;18.944;2024-01-27T19:26:28;8;7;4
55549;PMS7003;41397;49.972;18.944;2024-01-27T19:29:30;8;8;4
55549;PMS7003;41397;49.972;18.944;2024-01-27T19:32:31;3;3;2
55549;PMS7003;41397;49.972;18.944;2024-01-27T19:35:33;4;4;3
55549;PMS7003;41397;49.972;18.944;2024-01-27T19:38:35;4;4;3
55549;PMS7003;41397;49.972;18.944;2024-01-27T19:41:37;4;4;3
55549;PMS7003;41397;49.972;18.944;2024-01-27T19:44:38;7;7;3
55549;PMS7003;41397;49.972;18.944;2024-01-27T19:47:40;6;6;5
55549;PMS7003;41397;49.972;18.944;2024-01-27T19:50:43;5;5;5
55549;PMS7003;41397;49.972;18.944;2024-01-27T19:53:45;6;6;4
55549;PMS7003;41397;49.972;18.944;2024-01-27T19:56:46;3;3;2
55549;PMS7003;41397;49.972;18.944;2024-01-27T19:59:48;7;7;5
55549;PMS7003;41397;49.972;18.944;2024-01-27T20:02:51;5;5;3
55549;PMS7003;41397;49.972;18.944;2024-01-27T20:05:53;6;6;2
55549;PMS7003;41397;49.972;18.944;2024-01-27T20:08:54;3;3;1
55549;PMS7003;41397;49.972;18.944;2024-01-27T20:11:56;7;7;3